sensor_id;sensor_type;location;lat;lon;timestamp;P1;durP1;ratioP1;P2;durP2;ratioP2
11829;SDS011;5972;42.134;24.718;2023-08-08T00:01:12;3.00;;;2.30;;
11829;SDS011;5972;42.134;24.718;2023-08-08T00:03:39;2.10;;;1.90;;
11829;SDS011;5972;42.134;24.718;2023-08-08T00:06:05;2.75;;;2.05;;
11829;SDS011;5972;42.134;24.718;2023-08-08T00:08:32;2.92;;;2.00;;
11829;SDS011;5972;42.134;24.718;2023-08-08T00:11:00;2.88;;;1.90;;
11829;SDS011;5972;42.134;24.718;2023-08-08T00:13:27;5.97;;;2.08;;
11829;SDS011;5972;42.134;24.718;2023-08-08T00:15:54;2.00;;;1.80;;
11829;SDS011;5972;42.134;24.718;2023-08-08T00:18:21;2.20;;;1.83;;
11829;SDS011;5972;42.134;24.718;2023-08-08T00:20:47;7.70;;;2.10;;
11829;SDS011;5972;42.134;24.718;2023-08-08T00:23:14;1.90;;;1.70;;
11829;SDS011;5972;42.134;24.718;2023-08-08T00:25:41;2.15;;;1.95;;
11829;SDS011;5972;42.134;24.718;2023-08-08T00:28:09;1.80;;;1.65;;
11829;SDS011;5972;42.134;24.718;2023-08-08T00:30:36;4.20;;;1.65;;
11829;SDS011;5972;42.134;24.718;2023-08-08T00:33:03;2.83;;;1.90;;
11829;SDS011;5972;42.134;24.718;2023-08-08T00:35:30;2.30;;;1.73;;
11829;SDS011;5972;42.134;24.718;2023-08-08T00:37:57;1.92;;;1.60;;
11829;SDS011;5972;42.134;24.718;2023-08-08T00:40:24;1.65;;;1.40;;
11829;SDS011;5972;42.134;24.718;2023-08-08T00:42:50;1.65;;;1.55;;
11829;SDS011;5972;42.134;24.718;2023-08-08T00:45:19;1.95;;;1.83;;
11829;SDS011;5972;42.134;24.718;2023-08-08T00:47:45;2.10;;;1.73;;
11829;SDS011;5972;42.134;24.718;2023-08-08T00:50:12;1.77;;;1.60;;
11829;SDS011;5972;42.134;24.718;2023-08-08T00:52:39;1.60;;;1.50;;
11829;SDS011;5972;42.134;24.718;2023-08-08T00:55:07;2.45;;;1.40;;
11829;SDS011;5972;42.134;24.718;2023-08-08T00:57:35;2.88;;;1.50;;
11829;SDS011;5972;42.134;24.718;2023-08-08T01:00:04;1.42;;;1.33;;
11829;SDS011;5972;42.134;24.718;2023-08-08T01:02:35;1.50;;;1.40;;
11829;SDS011;5972;42.134;24.718;2023-08-08T01:05:02;1.42;;;1.30;;
11829;SDS011;5972;42.134;24.718;2023-08-08T01:07:33;1.10;;;1.10;;
11829;SDS011;5972;42.134;24.718;2023-08-08T01:10:05;1.58;;;1.30;;
11829;SDS011;5972;42.134;24.718;2023-08-08T01:12:37;2.08;;;1.45;;
11829;SDS011;5972;42.134;24.718;2023-08-08T01:15:07;1.50;;;1.40;;
11829;SDS011;5972;42.134;24.718;2023-08-08T01:17:36;2.15;;;1.30;;
11829;SDS011;5972;42.134;24.718;2023-08-08T01:20:04;1.33;;;1.10;;
11829;SDS011;5972;42.134;24.718;2023-08-08T01:22:35;2.25;;;0.85;;
11829;SDS011;5972;42.134;24.718;2023-08-08T01:25:05;3.75;;;0.93;;
11829;SDS011;5972;42.134;24.718;2023-08-08T01:27:34;0.90;;;0.90;;
11829;SDS011;5972;42.134;24.718;2023-08-08T01:30:01;1.52;;;0.80;;
11829;SDS011;5972;42.134;24.718;2023-08-08T01:32:29;1.33;;;0.82;;
11829;SDS011;5972;42.134;24.718;2023-08-08T01:34:56;4.50;;;1.23;;
11829;SDS011;5972;42.134;24.718;2023-08-08T01:37:24;0.77;;;0.77;;
11829;SDS011;5972;42.134;24.718;2023-08-08T01:39:57;0.98;;;0.75;;
11829;SDS011;5972;42.134;24.718;2023-08-08T01:42:27;0.70;;;0.70;;
11829;SDS011;5972;42.134;24.718;2023-08-08T01:44:54;1.25;;;0.88;;
11829;SDS011;5972;42.134;24.718;2023-08-08T01:47:22;1.00;;;0.90;;
11829;SDS011;5972;42.134;24.718;2023-08-08T01:49:49;0.98;;;0.73;;
11829;SDS011;5972;42.134;24.718;2023-08-08T01:52:16;0.85;;;0.70;;
11829;SDS011;5972;42.134;24.718;2023-08-08T01:54:43;1.10;;;0.80;;
11829;SDS011;5972;42.134;24.718;2023-08-08T01:57:10;0.80;;;0.80;;
11829;SDS011;5972;42.134;24.718;2023-08-08T01:59:38;3.05;;;1.10;;
11829;SDS011;5972;42.134;24.718;2023-08-08T02:02:05;3.47;;;0.80;;
11829;SDS011;5972;42.134;24.718;2023-08-08T02:04:32;2.78;;;1.17;;
11829;SDS011;5972;42.134;24.718;2023-08-08T02:06:59;2.28;;;0.80;;
11829;SDS011;5972;42.134;24.718;2023-08-08T02:09:25;3.00;;;1.10;;
11829;SDS011;5972;42.134;24.718;2023-08-08T02:11:52;1.48;;;0.90;;
11829;SDS011;5972;42.134;24.718;2023-08-08T02:14:19;4.25;;;0.98;;
11829;SDS011;5972;42.134;24.718;2023-08-08T02:16:47;5.03;;;1.00;;
11829;SDS011;5972;42.134;24.718;2023-08-08T02:19:14;0.77;;;0.77;;
11829;SDS011;5972;42.134;24.718;2023-08-08T02:21:41;0.85;;;0.85;;
11829;SDS011;5972;42.134;24.718;2023-08-08T02:24:08;1.10;;;0.90;;
11829;SDS011;5972;42.134;24.718;2023-08-08T02:26:34;2.42;;;0.90;;
11829;SDS011;5972;42.134;24.718;2023-08-08T02:29:01;1.15;;;0.85;;
11829;SDS011;5972;42.134;24.718;2023-08-08T02:31:28;1.00;;;0.80;;
11829;SDS011;5972;42.134;24.718;2023-08-08T02:33:56;0.88;;;0.70;;
11829;SDS011;5972;42.134;24.718;2023-08-08T02:36:23;1.45;;;0.70;;
11829;SDS011;5972;42.134;24.718;2023-08-08T02:38:50;0.90;;;0.90;;
11829;SDS011;5972;42.134;24.718;2023-08-08T02:41:18;1.02;;;0.93;;
11829;SDS011;5972;42.134;24.718;2023-08-08T02:43:45;0.73;;;0.73;;
11829;SDS011;5972;42.134;24.718;2023-08-08T02:46:12;2.65;;;1.10;;
11829;SDS011;5972;42.134;24.718;2023-08-08T02:48:39;0.70;;;0.70;;
11829;SDS011;5972;42.134;24.718;2023-08-08T02:51:07;1.63;;;0.98;;
11829;SDS011;5972;42.134;24.718;2023-08-08T02:53:34;0.80;;;0.80;;
11829;SDS011;5972;42.134;24.718;2023-08-08T02:56:00;3.15;;;1.10;;
11829;SDS011;5972;42.134;24.718;2023-08-08T02:58:27;4.53;;;0.93;;
11829;SDS011;5972;42.134;24.718;2023-08-08T03:00:54;3.85;;;1.00;;
11829;SDS011;5972;42.134;24.718;2023-08-08T03:03:21;1.20;;;1.00;;
11829;SDS011;5972;42.134;24.718;2023-08-08T03:05:47;1.85;;;0.98;;
11829;SDS011;5972;42.134;24.718;2023-08-08T03:08:15;1.00;;;0.90;;
11829;SDS011;5972;42.134;24.718;2023-08-08T03:10:42;1.25;;;0.85;;
11829;SDS011;5972;42.134;24.718;2023-08-08T03:13:10;1.20;;;1.10;;
11829;SDS011;5972;42.134;24.718;2023-08-08T03:15:37;1.15;;;1.05;;
11829;SDS011;5972;42.134;24.718;2023-08-08T03:18:04;1.10;;;1.00;;
11829;SDS011;5972;42.134;24.718;2023-08-08T03:20:31;1.65;;;0.80;;
11829;SDS011;5972;42.134;24.718;2023-08-08T03:22:58;1.02;;;0.90;;
11829;SDS011;5972;42.134;24.718;2023-08-08T03:25:27;2.63;;;1.25;;
11829;SDS011;5972;42.134;24.718;2023-08-08T03:27:54;2.47;;;1.00;;
11829;SDS011;5972;42.134;24.718;2023-08-08T03:30:21;3.00;;;1.10;;
11829;SDS011;5972;42.134;24.718;2023-08-08T03:32:48;1.60;;;1.00;;
11829;SDS011;5972;42.134;24.718;2023-08-08T03:35:14;1.20;;;1.00;;
11829;SDS011;5972;42.134;24.718;2023-08-08T03:37:41;4.10;;;1.08;;
11829;SDS011;5972;42.134;24.718;2023-08-08T03:40:09;1.25;;;1.00;;
11829;SDS011;5972;42.134;24.718;2023-08-08T03:42:38;1.23;;;1.00;;
11829;SDS011;5972;42.134;24.718;2023-08-08T03:45:05;1.10;;;1.00;;
11829;SDS011;5972;42.134;24.718;2023-08-08T03:47:33;1.48;;;0.95;;
11829;SDS011;5972;42.134;24.718;2023-08-08T03:49:59;1.33;;;1.00;;
11829;SDS011;5972;42.134;24.718;2023-08-08T03:52:27;5.95;;;1.10;;
11829;SDS011;5972;42.134;24.718;2023-08-08T03:54:54;1.10;;;1.00;;
11829;SDS011;5972;42.134;24.718;2023-08-08T03:57:20;1.00;;;0.90;;
11829;SDS011;5972;42.134;24.718;2023-08-08T03:59:49;2.33;;;0.90;;
11829;SDS011;5972;42.134;24.718;2023-08-08T04:02:15;3.55;;;1.00;;
11829;SDS011;5972;42.134;24.718;2023-08-08T04:04:42;1.45;;;0.90;;
11829;SDS011;5972;42.134;24.718;2023-08-08T04:07:09;6.15;;;1.20;;
11829;SDS011;5972;42.134;24.718;2023-08-08T04:09:35;4.20;;;1.23;;
11829;SDS011;5972;42.134;24.718;2023-08-08T04:12:02;6.00;;;1.10;;
11829;SDS011;5972;42.134;24.718;2023-08-08T04:14:30;4.13;;;1.10;;
11829;SDS011;5972;42.134;24.718;2023-08-08T04:16:58;1.65;;;0.90;;
11829;SDS011;5972;42.134;24.718;2023-08-08T04:19:24;5.72;;;1.25;;
11829;SDS011;5972;42.134;24.718;2023-08-08T04:21:51;5.45;;;1.50;;
11829;SDS011;5972;42.134;24.718;2023-08-08T04:24:18;2.22;;;1.25;;
11829;SDS011;5972;42.134;24.718;2023-08-08T04:26:45;4.00;;;1.40;;
11829;SDS011;5972;42.134;24.718;2023-08-08T04:29:12;2.55;;;1.40;;
11829;SDS011;5972;42.134;24.718;2023-08-08T04:31:38;3.67;;;1.20;;
11829;SDS011;5972;42.134;24.718;2023-08-08T04:34:06;1.55;;;1.45;;
11829;SDS011;5972;42.134;24.718;2023-08-08T04:36:33;4.20;;;1.50;;
11829;SDS011;5972;42.134;24.718;2023-08-08T04:39:00;1.50;;;1.40;;
11829;SDS011;5972;42.134;24.718;2023-08-08T04:41:27;2.50;;;1.50;;
11829;SDS011;5972;42.134;24.718;2023-08-08T04:43:55;1.13;;;1.13;;
11829;SDS011;5972;42.134;24.718;2023-08-08T04:46:22;4.53;;;1.83;;
11829;SDS011;5972;42.134;24.718;2023-08-08T04:48:48;2.55;;;1.45;;
11829;SDS011;5972;42.134;24.718;2023-08-08T04:51:17;3.08;;;1.50;;
11829;SDS011;5972;42.134;24.718;2023-08-08T04:53:43;1.40;;;1.30;;
11829;SDS011;5972;42.134;24.718;2023-08-08T04:56:10;3.03;;;1.60;;
11829;SDS011;5972;42.134;24.718;2023-08-08T04:58:37;1.67;;;1.48;;
11829;SDS011;5972;42.134;24.718;2023-08-08T05:01:04;2.17;;;1.50;;
11829;SDS011;5972;42.134;24.718;2023-08-08T05:03:30;1.60;;;1.42;;
11829;SDS011;5972;42.134;24.718;2023-08-08T05:05:57;3.13;;;1.67;;
11829;SDS011;5972;42.134;24.718;2023-08-08T05:08:26;1.73;;;1.58;;
11829;SDS011;5972;42.134;24.718;2023-08-08T05:10:53;2.13;;;1.58;;
11829;SDS011;5972;42.134;24.718;2023-08-08T05:13:20;1.60;;;1.30;;
11829;SDS011;5972;42.134;24.718;2023-08-08T05:15:47;1.60;;;1.50;;
11829;SDS011;5972;42.134;24.718;2023-08-08T05:18:13;2.03;;;1.52;;
11829;SDS011;5972;42.134;24.718;2023-08-08T05:20:40;3.08;;;1.52;;
11829;SDS011;5972;42.134;24.718;2023-08-08T05:23:07;3.33;;;1.67;;
11829;SDS011;5972;42.134;24.718;2023-08-08T05:25:35;2.88;;;1.70;;
11829;SDS011;5972;42.134;24.718;2023-08-08T05:28:02;1.70;;;1.60;;
11829;SDS011;5972;42.134;24.718;2023-08-08T05:30:29;2.13;;;1.60;;
11829;SDS011;5972;42.134;24.718;2023-08-08T05:32:56;2.75;;;1.75;;
11829;SDS011;5972;42.134;24.718;2023-08-08T05:35:23;4.85;;;1.85;;
11829;SDS011;5972;42.134;24.718;2023-08-08T05:37:49;3.85;;;1.60;;
11829;SDS011;5972;42.134;24.718;2023-08-08T05:40:16;2.90;;;1.60;;
11829;SDS011;5972;42.134;24.718;2023-08-08T05:42:44;2.97;;;1.80;;
11829;SDS011;5972;42.134;24.718;2023-08-08T05:45:11;3.08;;;1.65;;
11829;SDS011;5972;42.134;24.718;2023-08-08T05:47:38;1.70;;;1.60;;
11829;SDS011;5972;42.134;24.718;2023-08-08T05:50:05;1.67;;;1.58;;
11829;SDS011;5972;42.134;24.718;2023-08-08T05:52:32;1.80;;;1.60;;
11829;SDS011;5972;42.134;24.718;2023-08-08T05:54:59;3.03;;;1.80;;
11829;SDS011;5972;42.134;24.718;2023-08-08T05:57:26;1.95;;;1.50;;
11829;SDS011;5972;42.134;24.718;2023-08-08T05:59:54;3.97;;;2.08;;
11829;SDS011;5972;42.134;24.718;2023-08-08T06:02:21;1.98;;;1.85;;
11829;SDS011;5972;42.134;24.718;2023-08-08T06:04:47;2.70;;;1.80;;
11829;SDS011;5972;42.134;24.718;2023-08-08T06:07:14;3.05;;;1.92;;
11829;SDS011;5972;42.134;24.718;2023-08-08T06:09:44;2.50;;;1.80;;
11829;SDS011;5972;42.134;24.718;2023-08-08T06:12:11;1.90;;;1.80;;
11829;SDS011;5972;42.134;24.718;2023-08-08T06:14:38;1.95;;;1.80;;
11829;SDS011;5972;42.134;24.718;2023-08-08T06:17:06;2.33;;;1.65;;
11829;SDS011;5972;42.134;24.718;2023-08-08T06:19:33;2.20;;;2.00;;
11829;SDS011;5972;42.134;24.718;2023-08-08T06:21:59;4.70;;;1.90;;
11829;SDS011;5972;42.134;24.718;2023-08-08T06:24:28;2.92;;;2.00;;
11829;SDS011;5972;42.134;24.718;2023-08-08T06:26:55;3.05;;;2.00;;
11829;SDS011;5972;42.134;24.718;2023-08-08T06:29:22;1.95;;;1.85;;
11829;SDS011;5972;42.134;24.718;2023-08-08T06:31:49;2.92;;;2.15;;
11829;SDS011;5972;42.134;24.718;2023-08-08T06:34:17;3.08;;;2.10;;
11829;SDS011;5972;42.134;24.718;2023-08-08T06:36:44;2.72;;;2.15;;
11829;SDS011;5972;42.134;24.718;2023-08-08T06:39:12;3.35;;;2.00;;
11829;SDS011;5972;42.134;24.718;2023-08-08T06:41:38;2.20;;;1.98;;
11829;SDS011;5972;42.134;24.718;2023-08-08T06:44:06;1.92;;;1.83;;
11829;SDS011;5972;42.134;24.718;2023-08-08T06:46:34;2.70;;;1.73;;
11829;SDS011;5972;42.134;24.718;2023-08-08T06:49:00;5.05;;;2.00;;
11829;SDS011;5972;42.134;24.718;2023-08-08T06:51:29;2.30;;;2.10;;
11829;SDS011;5972;42.134;24.718;2023-08-08T06:53:56;2.30;;;2.20;;
11829;SDS011;5972;42.134;24.718;2023-08-08T06:56:22;5.57;;;2.15;;
11829;SDS011;5972;42.134;24.718;2023-08-08T06:58:51;1.90;;;1.80;;
11829;SDS011;5972;42.134;24.718;2023-08-08T07:01:17;4.40;;;2.10;;
11829;SDS011;5972;42.134;24.718;2023-08-08T07:03:44;3.40;;;2.10;;
11829;SDS011;5972;42.134;24.718;2023-08-08T07:06:11;1.88;;;1.65;;
11829;SDS011;5972;42.134;24.718;2023-08-08T07:08:40;1.83;;;1.73;;
11829;SDS011;5972;42.134;24.718;2023-08-08T07:11:07;2.22;;;1.83;;
11829;SDS011;5972;42.134;24.718;2023-08-08T07:13:34;2.35;;;1.60;;
11829;SDS011;5972;42.134;24.718;2023-08-08T07:16:01;1.50;;;1.40;;
11829;SDS011;5972;42.134;24.718;2023-08-08T07:18:27;1.85;;;1.75;;
11829;SDS011;5972;42.134;24.718;2023-08-08T07:20:54;1.98;;;1.85;;
11829;SDS011;5972;42.134;24.718;2023-08-08T07:23:21;2.85;;;1.88;;
11829;SDS011;5972;42.134;24.718;2023-08-08T07:25:50;3.03;;;2.08;;
11829;SDS011;5972;42.134;24.718;2023-08-08T07:28:16;2.67;;;1.70;;
11829;SDS011;5972;42.134;24.718;2023-08-08T07:30:43;1.85;;;1.30;;
11829;SDS011;5972;42.134;24.718;2023-08-08T07:33:10;1.55;;;1.45;;
11829;SDS011;5972;42.134;24.718;2023-08-08T07:35:38;1.92;;;1.50;;
11829;SDS011;5972;42.134;24.718;2023-08-08T07:38:05;2.35;;;1.52;;
11829;SDS011;5972;42.134;24.718;2023-08-08T07:40:32;1.45;;;1.35;;
11829;SDS011;5972;42.134;24.718;2023-08-08T07:43:00;1.60;;;1.50;;
11829;SDS011;5972;42.134;24.718;2023-08-08T07:45:27;4.05;;;1.75;;
11829;SDS011;5972;42.134;24.718;2023-08-08T07:47:54;2.75;;;1.50;;
11829;SDS011;5972;42.134;24.718;2023-08-08T07:50:20;3.13;;;1.77;;
11829;SDS011;5972;42.134;24.718;2023-08-08T07:52:47;1.73;;;1.50;;
11829;SDS011;5972;42.134;24.718;2023-08-08T07:55:14;1.80;;;1.70;;
11829;SDS011;5972;42.134;24.718;2023-08-08T07:57:41;4.40;;;1.85;;
11829;SDS011;5972;42.134;24.718;2023-08-08T08:00:09;4.88;;;2.13;;
11829;SDS011;5972;42.134;24.718;2023-08-08T08:02:37;6.82;;;1.98;;
11829;SDS011;5972;42.134;24.718;2023-08-08T08:05:04;5.90;;;2.00;;
11829;SDS011;5972;42.134;24.718;2023-08-08T08:07:33;2.67;;;1.92;;
11829;SDS011;5972;42.134;24.718;2023-08-08T08:10:00;3.63;;;1.38;;
11829;SDS011;5972;42.134;24.718;2023-08-08T08:12:27;3.08;;;1.40;;
11829;SDS011;5972;42.134;24.718;2023-08-08T08:14:54;6.82;;;1.83;;
11829;SDS011;5972;42.134;24.718;2023-08-08T08:17:22;7.22;;;1.60;;
11829;SDS011;5972;42.134;24.718;2023-08-08T08:19:49;1.90;;;1.40;;
11829;SDS011;5972;42.134;24.718;2023-08-08T08:22:16;2.20;;;1.42;;
11829;SDS011;5972;42.134;24.718;2023-08-08T08:24:43;7.65;;;1.65;;
11829;SDS011;5972;42.134;24.718;2023-08-08T08:27:11;4.07;;;1.35;;
11829;SDS011;5972;42.134;24.718;2023-08-08T08:29:38;2.97;;;1.50;;
11829;SDS011;5972;42.134;24.718;2023-08-08T08:32:05;1.25;;;1.10;;
11829;SDS011;5972;42.134;24.718;2023-08-08T08:34:33;3.90;;;1.50;;
11829;SDS011;5972;42.134;24.718;2023-08-08T08:37:00;3.50;;;1.50;;
11829;SDS011;5972;42.134;24.718;2023-08-08T08:39:27;3.03;;;1.65;;
11829;SDS011;5972;42.134;24.718;2023-08-08T08:41:54;4.63;;;1.55;;
11829;SDS011;5972;42.134;24.718;2023-08-08T08:44:26;1.98;;;1.40;;
11829;SDS011;5972;42.134;24.718;2023-08-08T08:46:57;3.55;;;1.40;;
11829;SDS011;5972;42.134;24.718;2023-08-08T08:49:26;3.53;;;1.50;;
11829;SDS011;5972;42.134;24.718;2023-08-08T08:51:57;2.97;;;1.48;;
11829;SDS011;5972;42.134;24.718;2023-08-08T08:54:30;1.55;;;1.27;;
11829;SDS011;5972;42.134;24.718;2023-08-08T08:56:57;3.20;;;1.30;;
11829;SDS011;5972;42.134;24.718;2023-08-08T08:59:24;1.90;;;1.60;;
11829;SDS011;5972;42.134;24.718;2023-08-08T09:01:51;3.95;;;1.10;;
11829;SDS011;5972;42.134;24.718;2023-08-08T09:04:20;1.52;;;1.30;;
11829;SDS011;5972;42.134;24.718;2023-08-08T09:06:48;1.38;;;1.15;;
11829;SDS011;5972;42.134;24.718;2023-08-08T09:09:17;1.65;;;1.30;;
11829;SDS011;5972;42.134;24.718;2023-08-08T09:11:47;4.28;;;1.23;;
11829;SDS011;5972;42.134;24.718;2023-08-08T09:14:15;3.72;;;1.20;;
11829;SDS011;5972;42.134;24.718;2023-08-08T09:16:43;1.38;;;1.27;;
11829;SDS011;5972;42.134;24.718;2023-08-08T09:19:11;1.95;;;1.45;;
11829;SDS011;5972;42.134;24.718;2023-08-08T09:21:38;1.40;;;1.08;;
11829;SDS011;5972;42.134;24.718;2023-08-08T09:24:04;1.10;;;1.10;;
11829;SDS011;5972;42.134;24.718;2023-08-08T09:26:33;1.98;;;1.17;;
11829;SDS011;5972;42.134;24.718;2023-08-08T09:29:00;1.13;;;1.00;;
11829;SDS011;5972;42.134;24.718;2023-08-08T09:31:27;1.23;;;1.20;;
11829;SDS011;5972;42.134;24.718;2023-08-08T09:33:55;2.30;;;1.30;;
11829;SDS011;5972;42.134;24.718;2023-08-08T09:36:22;3.05;;;1.40;;
11829;SDS011;5972;42.134;24.718;2023-08-08T09:38:50;1.63;;;1.10;;
11829;SDS011;5972;42.134;24.718;2023-08-08T09:41:18;2.88;;;1.30;;
11829;SDS011;5972;42.134;24.718;2023-08-08T09:43:46;1.15;;;1.00;;
11829;SDS011;5972;42.134;24.718;2023-08-08T09:46:14;1.33;;;1.23;;
11829;SDS011;5972;42.134;24.718;2023-08-08T09:48:41;2.45;;;1.15;;
11829;SDS011;5972;42.134;24.718;2023-08-08T09:51:08;3.40;;;1.30;;
11829;SDS011;5972;42.134;24.718;2023-08-08T09:53:35;1.50;;;0.90;;
11829;SDS011;5972;42.134;24.718;2023-08-08T09:56:03;1.35;;;1.17;;
11829;SDS011;5972;42.134;24.718;2023-08-08T09:58:30;1.48;;;1.27;;
11829;SDS011;5972;42.134;24.718;2023-08-08T10:00:59;3.45;;;1.17;;
11829;SDS011;5972;42.134;24.718;2023-08-08T10:03:26;5.15;;;1.30;;
11829;SDS011;5972;42.134;24.718;2023-08-08T10:05:55;1.20;;;1.10;;
11829;SDS011;5972;42.134;24.718;2023-08-08T10:08:21;0.80;;;0.80;;
11829;SDS011;5972;42.134;24.718;2023-08-08T10:10:49;2.90;;;1.25;;
11829;SDS011;5972;42.134;24.718;2023-08-08T10:13:20;1.92;;;1.10;;
11829;SDS011;5972;42.134;24.718;2023-08-08T10:15:47;1.40;;;1.10;;
11829;SDS011;5972;42.134;24.718;2023-08-08T10:18:16;1.88;;;1.10;;
11829;SDS011;5972;42.134;24.718;2023-08-08T10:20:43;1.20;;;1.10;;
11829;SDS011;5972;42.134;24.718;2023-08-08T10:23:14;2.33;;;1.30;;
11829;SDS011;5972;42.134;24.718;2023-08-08T10:25:43;1.13;;;1.02;;
11829;SDS011;5972;42.134;24.718;2023-08-08T10:28:11;3.72;;;1.20;;
11829;SDS011;5972;42.134;24.718;2023-08-08T10:30:43;1.08;;;1.00;;
11829;SDS011;5972;42.134;24.718;2023-08-08T10:33:18;1.00;;;1.00;;
11829;SDS011;5972;42.134;24.718;2023-08-08T10:35:50;3.95;;;1.00;;
11829;SDS011;5972;42.134;24.718;2023-08-08T10:38:21;3.20;;;1.10;;
11829;SDS011;5972;42.134;24.718;2023-08-08T10:40:48;1.27;;;1.05;;
11829;SDS011;5972;42.134;24.718;2023-08-08T10:43:24;2.15;;;1.00;;
11829;SDS011;5972;42.134;24.718;2023-08-08T10:45:53;3.55;;;1.00;;
11829;SDS011;5972;42.134;24.718;2023-08-08T10:48:25;0.80;;;0.80;;
11829;SDS011;5972;42.134;24.718;2023-08-08T10:50:54;1.90;;;1.00;;
11829;SDS011;5972;42.134;24.718;2023-08-08T10:53:22;1.90;;;1.20;;
11829;SDS011;5972;42.134;24.718;2023-08-08T10:55:57;0.95;;;0.95;;
11829;SDS011;5972;42.134;24.718;2023-08-08T10:58:34;4.15;;;1.20;;
11829;SDS011;5972;42.134;24.718;2023-08-08T11:01:02;1.13;;;1.10;;
11829;SDS011;5972;42.134;24.718;2023-08-08T11:03:34;1.58;;;1.20;;
11829;SDS011;5972;42.134;24.718;2023-08-08T11:06:02;2.25;;;1.30;;
11829;SDS011;5972;42.134;24.718;2023-08-08T11:08:30;1.00;;;1.00;;
11829;SDS011;5972;42.134;24.718;2023-08-08T11:10:57;2.03;;;1.02;;
11829;SDS011;5972;42.134;24.718;2023-08-08T11:13:25;1.98;;;1.40;;
11829;SDS011;5972;42.134;24.718;2023-08-08T11:15:52;1.90;;;1.15;;
11829;SDS011;5972;42.134;24.718;2023-08-08T11:18:19;1.20;;;1.20;;
11829;SDS011;5972;42.134;24.718;2023-08-08T11:20:48;1.40;;;1.27;;
11829;SDS011;5972;42.134;24.718;2023-08-08T11:23:16;2.15;;;1.33;;
11829;SDS011;5972;42.134;24.718;2023-08-08T11:25:44;1.25;;;1.10;;
11829;SDS011;5972;42.134;24.718;2023-08-08T11:28:12;1.13;;;1.13;;
11829;SDS011;5972;42.134;24.718;2023-08-08T11:30:40;1.42;;;1.20;;
11829;SDS011;5972;42.134;24.718;2023-08-08T11:33:08;2.92;;;1.30;;
11829;SDS011;5972;42.134;24.718;2023-08-08T11:35:36;3.17;;;1.30;;
11829;SDS011;5972;42.134;24.718;2023-08-08T11:38:05;1.85;;;1.20;;
11829;SDS011;5972;42.134;24.718;2023-08-08T11:40:33;1.58;;;1.10;;
11829;SDS011;5972;42.134;24.718;2023-08-08T11:43:00;1.45;;;1.08;;
11829;SDS011;5972;42.134;24.718;2023-08-08T11:45:27;2.17;;;1.30;;
11829;SDS011;5972;42.134;24.718;2023-08-08T11:47:54;2.10;;;1.30;;
11829;SDS011;5972;42.134;24.718;2023-08-08T11:50:22;3.08;;;1.20;;
11829;SDS011;5972;42.134;24.718;2023-08-08T11:52:50;2.38;;;1.38;;
11829;SDS011;5972;42.134;24.718;2023-08-08T11:55:20;2.80;;;1.40;;
11829;SDS011;5972;42.134;24.718;2023-08-08T11:57:47;3.60;;;1.60;;
11829;SDS011;5972;42.134;24.718;2023-08-08T12:00:15;1.42;;;1.20;;
11829;SDS011;5972;42.134;24.718;2023-08-08T12:02:43;2.53;;;1.30;;
11829;SDS011;5972;42.134;24.718;2023-08-08T12:05:11;1.05;;;1.05;;
11829;SDS011;5972;42.134;24.718;2023-08-08T12:07:42;1.63;;;1.10;;
11829;SDS011;5972;42.134;24.718;2023-08-08T12:10:14;1.88;;;1.20;;
11829;SDS011;5972;42.134;24.718;2023-08-08T12:12:43;1.20;;;1.10;;
11829;SDS011;5972;42.134;24.718;2023-08-08T12:15:11;1.83;;;1.20;;
11829;SDS011;5972;42.134;24.718;2023-08-08T12:17:38;1.20;;;1.10;;
11829;SDS011;5972;42.134;24.718;2023-08-08T12:20:06;1.35;;;1.20;;
11829;SDS011;5972;42.134;24.718;2023-08-08T12:22:35;1.00;;;1.00;;
11829;SDS011;5972;42.134;24.718;2023-08-08T12:25:03;2.08;;;1.20;;
11829;SDS011;5972;42.134;24.718;2023-08-08T12:27:30;1.38;;;1.10;;
11829;SDS011;5972;42.134;24.718;2023-08-08T12:29:58;4.10;;;1.30;;
11829;SDS011;5972;42.134;24.718;2023-08-08T12:32:26;2.00;;;1.13;;
11829;SDS011;5972;42.134;24.718;2023-08-08T12:34:54;1.50;;;1.10;;
11829;SDS011;5972;42.134;24.718;2023-08-08T12:37:21;1.40;;;1.30;;
11829;SDS011;5972;42.134;24.718;2023-08-08T12:39:48;1.33;;;1.23;;
11829;SDS011;5972;42.134;24.718;2023-08-08T12:42:15;1.67;;;1.10;;
11829;SDS011;5972;42.134;24.718;2023-08-08T12:44:42;1.92;;;1.20;;
11829;SDS011;5972;42.134;24.718;2023-08-08T12:47:11;1.90;;;1.20;;
11829;SDS011;5972;42.134;24.718;2023-08-08T12:49:38;1.67;;;1.20;;
11829;SDS011;5972;42.134;24.718;2023-08-08T12:52:04;1.30;;;1.20;;
11829;SDS011;5972;42.134;24.718;2023-08-08T12:54:31;2.53;;;1.10;;
11829;SDS011;5972;42.134;24.718;2023-08-08T12:56:58;2.92;;;1.30;;
11829;SDS011;5972;42.134;24.718;2023-08-08T12:59:25;1.20;;;1.10;;
11829;SDS011;5972;42.134;24.718;2023-08-08T13:01:52;1.75;;;1.10;;
11829;SDS011;5972;42.134;24.718;2023-08-08T13:04:20;1.23;;;1.10;;
11829;SDS011;5972;42.134;24.718;2023-08-08T13:06:47;1.23;;;1.23;;
11829;SDS011;5972;42.134;24.718;2023-08-08T13:09:14;1.30;;;1.20;;
11829;SDS011;5972;42.134;24.718;2023-08-08T13:11:41;1.38;;;1.27;;
11829;SDS011;5972;42.134;24.718;2023-08-08T13:14:08;2.45;;;1.38;;
11829;SDS011;5972;42.134;24.718;2023-08-08T13:16:35;1.40;;;1.30;;
11829;SDS011;5972;42.134;24.718;2023-08-08T13:19:02;1.55;;;1.30;;
11829;SDS011;5972;42.134;24.718;2023-08-08T13:21:31;1.27;;;1.17;;
11829;SDS011;5972;42.134;24.718;2023-08-08T13:23:58;4.22;;;1.27;;
11829;SDS011;5972;42.134;24.718;2023-08-08T13:26:25;1.92;;;1.40;;
11829;SDS011;5972;42.134;24.718;2023-08-08T13:28:52;1.83;;;1.20;;
11829;SDS011;5972;42.134;24.718;2023-08-08T13:31:18;2.40;;;1.38;;
11829;SDS011;5972;42.134;24.718;2023-08-08T13:33:45;3.20;;;1.30;;
11829;SDS011;5972;42.134;24.718;2023-08-08T13:36:12;1.83;;;1.30;;
11829;SDS011;5972;42.134;24.718;2023-08-08T13:38:40;1.35;;;1.25;;
11829;SDS011;5972;42.134;24.718;2023-08-08T13:41:07;1.40;;;1.30;;
11829;SDS011;5972;42.134;24.718;2023-08-08T13:43:34;1.35;;;1.25;;
11829;SDS011;5972;42.134;24.718;2023-08-08T13:46:01;1.42;;;1.33;;
11829;SDS011;5972;42.134;24.718;2023-08-08T13:48:29;1.50;;;1.40;;
11829;SDS011;5972;42.134;24.718;2023-08-08T13:50:55;1.48;;;1.33;;
11829;SDS011;5972;42.134;24.718;2023-08-08T13:53:22;1.60;;;1.50;;
11829;SDS011;5972;42.134;24.718;2023-08-08T13:55:50;4.30;;;1.50;;
11829;SDS011;5972;42.134;24.718;2023-08-08T13:58:17;2.15;;;1.38;;
11829;SDS011;5972;42.134;24.718;2023-08-08T14:00:47;1.65;;;1.55;;
11829;SDS011;5972;42.134;24.718;2023-08-08T14:03:13;2.22;;;1.40;;
11829;SDS011;5972;42.134;24.718;2023-08-08T14:05:40;1.35;;;1.23;;
11829;SDS011;5972;42.134;24.718;2023-08-08T14:08:08;2.50;;;1.50;;
11829;SDS011;5972;42.134;24.718;2023-08-08T14:10:35;1.50;;;1.40;;
11829;SDS011;5972;42.134;24.718;2023-08-08T14:13:03;1.40;;;1.30;;
11829;SDS011;5972;42.134;24.718;2023-08-08T14:15:30;1.52;;;1.30;;
11829;SDS011;5972;42.134;24.718;2023-08-08T14:17:58;1.48;;;1.38;;
11829;SDS011;5972;42.134;24.718;2023-08-08T14:20:25;5.38;;;1.40;;
11829;SDS011;5972;42.134;24.718;2023-08-08T14:22:52;1.42;;;1.20;;
11829;SDS011;5972;42.134;24.718;2023-08-08T14:25:19;2.88;;;1.35;;
11829;SDS011;5972;42.134;24.718;2023-08-08T14:27:45;2.83;;;1.40;;
11829;SDS011;5972;42.134;24.718;2023-08-08T14:30:14;1.15;;;1.13;;
11829;SDS011;5972;42.134;24.718;2023-08-08T14:32:41;1.98;;;1.23;;
11829;SDS011;5972;42.134;24.718;2023-08-08T14:35:08;2.63;;;1.50;;
11829;SDS011;5972;42.134;24.718;2023-08-08T14:37:35;2.15;;;1.35;;
11829;SDS011;5972;42.134;24.718;2023-08-08T14:40:02;1.40;;;1.30;;
11829;SDS011;5972;42.134;24.718;2023-08-08T14:42:31;1.40;;;1.10;;
11829;SDS011;5972;42.134;24.718;2023-08-08T14:44:57;2.20;;;1.20;;
11829;SDS011;5972;42.134;24.718;2023-08-08T14:47:25;3.05;;;1.30;;
11829;SDS011;5972;42.134;24.718;2023-08-08T14:49:52;1.60;;;1.50;;